Stockwell, Indiana
Current Conditions -  °F | °C
As of 1:54 AM on Monday 24 Nov 2014 (Local Time) from KLAF Reporting Station
Light Rain Light Rain  
Wind Chill: 52°   Ceiling: 500
Heat Index: 52°   Visibility: 10mi
Dew Point: 51°   Wind: 12mph
Humidity: 97%   Direction: 230°SW
Pressure: 29.16"   Gusts: 20mph
Location:  40.29°N, 86.77°W
Report Text: KLAF 240654Z AUTO 23010G17KT 10SM -RA OVC005 11/11 A2916 RMK AO2 RAB01E27B40 SLP874 P0000 T01110106 TSNO
Loading
Personal Weather Stations






























Interactive Weather Map New forecast layout! Learn more

10-Day Weather Forecast

Advertisements
Track Severe Weather on mobile